San Antonio, FL (33576)

3:54 PM EST on February 06, 2016 (GMT -0500)
Rural Wesley Chapel | | Change Station
CLOSE
Current Station
Personal Weather Station
Location: Wesley Chapel, FL
Elevation: 125 ft
Nearby Weather Stations

Elev 125 ft 28.30 °N, 82.30 °W | Updated 10 minutes ago

Partly Cloudy
Partly Cloudy
54.7 °F
Feels Like 54.7 °F
N
4.7
Wind Variable Wind from West

Today
High -- | Low -- °F
--% Chance of Precip.
Yesterday
High -- | Low -- °F
Precip. -- in
Pressure 30.10 in
Visibility 3.0 miles
Clouds Scattered Clouds 600 ft
Mostly Cloudy 900 ft
Overcast 3800 ft
Dew Point 54 °F
Humidity 99%
Rainfall 0.18 in
Snow Depth Not available.
7:14 AM 6:12 PM
Waning Crescent, 4% visible
METAR KZPH 062055Z AUTO 28007KT 3SM RA SCT006 BKN009 OVC038 13/12 A3010 RMK AO2 P0006 60015 T01300122
Pressure 30.10 in
Visibility 3.0 miles
Clouds Scattered Clouds 600 ft
Mostly Cloudy 900 ft
Overcast 3800 ft
Dew Point 54 °F
Humidity 99%
Rainfall 0.18 in
Snow Depth Not available.
7:14 AM 6:12 PM
Waning Crescent, 4% visible
METAR KZPH 062055Z AUTO 28007KT 3SM RA SCT006 BKN009 OVC038 13/12 A3010 RMK AO2 P0006 60015 T01300122

10-Day Weather Forecast

Almanac

Astronomy

Feb. 06, 2016 Rise Set
Actual Time
Civil Twilight
Nautical Twilight
Astronomical Twilight
Moon
Length of Visible Light
Length of Day
Tomorrow will be .
, % of the Moon is Illuminated

Today's Extremes

State Highs State Lows

Community

WunderPhotos

Upload Photos

1,891,046 photos uploaded!

WunderBlog® & News

Nearby

Air Quality

  Air Quality AQ Index Pollutant
Not available.

Snow Depth

Station Depth Elevation

Earthquake Activity

City Distance Mag. Time & Date
Minimum magnitude displayed is 2.5.

Coastal Water Temperatures

Place Temperature

Stations

Nearby Weather Stations

Station Location Temp. Windchill Dew Point Humidity Wind Precip. Elev Updated Type
                   

Watches & Warnings

There are currently no watches in effect.